Aviation Digital Data Service (ADDS)

Output produced by METARs form (0119 UTC 14 May 2021)
found at http://aviationweather.gov/metar/data/
 
KCLT 140052Z VRB05KT 10SM CLR 17/02 A3022 RMK AO2 SLP230 T01720017
KCLT 132337Z 1400/1506 01005KT P6SM FEW080 
     FM141500 VRB03KT P6SM SCT250 
     FM141800 33006KT P6SM SCT100 BKN250